createdAt,value
2023-01-30T00:00:55.089Z,7.68
2023-01-30T00:03:22.915Z,7.69
2023-01-30T00:05:50.647Z,7.71
2023-01-30T00:08:18.513Z,7.70
2023-01-30T00:10:47.567Z,7.73
2023-01-30T00:13:16.541Z,7.69
2023-01-30T00:15:44.256Z,7.80
2023-01-30T00:18:12.080Z,7.83
2023-01-30T00:20:39.740Z,7.67
2023-01-30T00:23:07.524Z,7.85
2023-01-30T00:25:35.305Z,7.88
2023-01-30T00:28:04.457Z,7.87
2023-01-30T00:30:32.234Z,7.90
2023-01-30T00:33:00.173Z,7.95
2023-01-30T00:35:31.364Z,7.98
2023-01-30T00:37:59.451Z,7.94
2023-01-30T00:40:27.665Z,8.01
2023-01-30T00:43:12.830Z,8.03
2023-01-30T00:46:00.085Z,8.04
2023-01-30T00:48:27.875Z,8.04
2023-01-30T00:50:55.608Z,8.05
2023-01-30T00:53:23.314Z,8.09
2023-01-30T00:55:51.905Z,8.09
2023-01-30T00:58:19.640Z,8.14
2023-01-30T01:00:48.773Z,8.09
2023-01-30T01:03:16.529Z,8.17
2023-01-30T01:05:44.406Z,8.20
2023-01-30T01:10:46.175Z,8.21
2023-01-30T01:13:13.883Z,8.24
2023-01-30T01:15:41.663Z,8.26
2023-01-30T01:18:10.705Z,8.32
2023-01-30T01:20:38.454Z,8.32
2023-01-30T01:23:06.128Z,8.34
2023-01-30T01:25:33.993Z,8.37
2023-01-30T01:28:01.688Z,8.38
2023-01-30T01:30:29.525Z,8.39
2023-01-30T01:32:57.819Z,8.40
2023-01-30T01:35:27.078Z,8.39
2023-01-30T01:37:55.405Z,8.40
2023-01-30T01:40:41.081Z,8.22
2023-01-30T01:43:16.944Z,8.08
2023-01-30T01:45:44.930Z,8.44
2023-01-30T01:48:14.021Z,8.43
2023-01-30T01:50:44.900Z,8.44
2023-01-30T01:53:12.735Z,8.42
2023-01-30T01:55:40.567Z,8.47
2023-01-30T01:58:09.721Z,8.49
2023-01-30T02:00:37.526Z,8.54
2023-01-30T02:03:07.723Z,8.56
2023-01-30T02:05:36.484Z,8.56
2023-01-30T02:08:06.764Z,8.60
2023-01-30T02:10:38.783Z,8.57
2023-01-30T02:13:06.659Z,8.69
2023-01-30T02:15:34.464Z,8.56
2023-01-30T02:18:02.320Z,8.61
2023-01-30T02:20:33.219Z,8.61
2023-01-30T02:23:28.721Z,8.69
2023-01-30T02:26:22.168Z,8.74
2023-01-30T02:29:00.679Z,8.71
2023-01-30T02:31:33.417Z,8.77
2023-01-30T02:34:15.227Z,8.75
2023-01-30T02:36:50.354Z,8.79
2023-01-30T02:39:22.072Z,8.80
2023-01-30T02:41:52.694Z,8.50
2023-01-30T02:44:25.693Z,8.83
2023-01-30T02:46:56.606Z,8.85
2023-01-30T02:49:25.199Z,8.86
2023-01-30T02:51:52.987Z,8.82
2023-01-30T02:54:20.635Z,8.86
2023-01-30T02:56:49.915Z,8.87
2023-01-30T02:59:18.782Z,8.79
2023-01-30T03:01:59.373Z,8.89
2023-01-30T03:04:32.639Z,8.84
2023-01-30T03:07:07.415Z,8.88
2023-01-30T03:09:39.345Z,8.93
2023-01-30T03:12:08.858Z,8.94
2023-01-30T03:14:39.449Z,8.92
2023-01-30T03:17:08.572Z,8.86
2023-01-30T03:19:36.359Z,8.91
2023-01-30T03:22:04.018Z,8.95
2023-01-30T03:24:31.860Z,8.88
2023-01-30T03:27:02.108Z,9.00
2023-01-30T03:29:29.883Z,8.99
2023-01-30T03:31:57.564Z,9.00
2023-01-30T03:34:26.780Z,8.97
2023-01-30T03:36:54.466Z,9.01
2023-01-30T03:39:22.283Z,9.05
2023-01-30T03:41:49.931Z,9.01
2023-01-30T03:44:17.728Z,8.75
2023-01-30T03:46:45.819Z,8.97
2023-01-30T03:49:14.032Z,9.05
2023-01-30T03:51:43.226Z,9.02
2023-01-30T03:54:11.008Z,9.06
2023-01-30T03:56:38.659Z,9.08
2023-01-30T03:59:06.532Z,9.09
2023-01-30T04:01:34.324Z,8.42
2023-01-30T04:04:02.098Z,9.10
2023-01-30T04:06:30.224Z,8.91
2023-01-30T04:08:59.538Z,9.08
2023-01-30T04:11:27.331Z,9.12
2023-01-30T04:13:54.998Z,9.16
2023-01-30T04:16:23.757Z,9.16
2023-01-30T04:18:51.460Z,9.15
2023-01-30T04:21:19.443Z,9.20
2023-01-30T04:23:47.289Z,9.20
2023-01-30T04:26:16.447Z,9.21
2023-01-30T04:28:44.996Z,9.20
2023-01-30T04:31:12.912Z,9.23
2023-01-30T04:33:40.846Z,9.24
2023-01-30T04:36:09.809Z,9.23
2023-01-30T04:38:37.661Z,9.25
2023-01-30T04:41:05.763Z,9.28
2023-01-30T04:43:34.965Z,9.29
2023-01-30T04:46:02.621Z,9.30
2023-01-30T04:48:30.505Z,9.30
2023-01-30T04:50:58.145Z,9.29
2023-01-30T04:53:26.096Z,9.30
2023-01-30T04:55:53.757Z,9.29
2023-01-30T04:58:21.471Z,9.31
2023-01-30T05:00:50.666Z,9.30
2023-01-30T05:03:18.505Z,9.30
2023-01-30T05:05:47.471Z,8.94
2023-01-30T05:08:15.397Z,9.31
2023-01-30T05:10:43.098Z,9.33
2023-01-30T05:13:10.943Z,9.33
2023-01-30T05:15:38.669Z,9.35
2023-01-30T05:18:07.946Z,9.33
2023-01-30T05:20:35.632Z,9.32
2023-01-30T05:23:03.408Z,9.39
2023-01-30T05:25:31.194Z,9.43
2023-01-30T05:27:59.007Z,9.42
2023-01-30T05:30:26.676Z,9.37
2023-01-30T05:32:54.522Z,9.40
2023-01-30T05:35:23.579Z,9.43
2023-01-30T05:37:51.701Z,9.44
2023-01-30T05:40:19.518Z,9.43
2023-01-30T05:42:47.200Z,9.47
2023-01-30T05:45:15.063Z,9.44
2023-01-30T05:47:42.698Z,9.40
2023-01-30T05:50:12.187Z,9.43
2023-01-30T05:52:41.320Z,9.46
2023-01-30T05:55:10.109Z,9.51
2023-01-30T05:57:37.744Z,9.25
2023-01-30T06:00:06.587Z,9.53
2023-01-30T06:02:34.301Z,9.45
2023-01-30T06:05:02.111Z,9.51
2023-01-30T06:07:29.793Z,9.56
2023-01-30T06:09:59.073Z,9.56
2023-01-30T06:12:26.959Z,9.58
2023-01-30T06:14:54.622Z,9.61
2023-01-30T06:17:22.405Z,9.62
2023-01-30T06:19:50.082Z,9.68
2023-01-30T06:22:17.913Z,9.71
2023-01-30T06:24:45.571Z,9.71
2023-01-30T06:27:14.828Z,9.65
2023-01-30T06:29:42.523Z,9.75
2023-01-30T06:32:10.708Z,9.74
2023-01-30T06:34:38.358Z,9.80
2023-01-30T06:37:06.167Z,9.80
2023-01-30T06:39:33.925Z,9.80
2023-01-30T06:42:02.827Z,9.83
2023-01-30T06:44:32.075Z,9.85
2023-01-30T06:46:59.906Z,9.86
2023-01-30T06:49:27.969Z,9.87
2023-01-30T06:51:55.709Z,9.89
2023-01-30T06:54:23.686Z,9.93
2023-01-30T06:56:51.525Z,9.95
2023-01-30T06:59:19.447Z,9.96
2023-01-30T07:01:48.766Z,9.96
2023-01-30T07:04:16.915Z,9.98
2023-01-30T07:06:46.159Z,10.01
2023-01-30T07:11:41.722Z,10.09
2023-01-30T07:14:10.314Z,10.12
2023-01-30T07:16:38.349Z,10.09
2023-01-30T07:19:07.451Z,10.19
2023-01-30T07:21:36.241Z,10.22
2023-01-30T07:24:03.904Z,10.22
2023-01-30T07:26:31.671Z,10.33
2023-01-30T07:28:59.683Z,10.36
2023-01-30T07:31:27.471Z,10.39
2023-01-30T07:33:55.306Z,10.45
2023-01-30T07:36:26.989Z,10.44
2023-01-30T07:38:55.144Z,10.37
2023-01-30T07:41:22.915Z,10.46
2023-01-30T07:43:53.221Z,10.47
2023-01-30T07:46:20.902Z,10.47
2023-01-30T07:48:48.534Z,10.53
2023-01-30T07:51:16.351Z,10.52
2023-01-30T07:53:45.430Z,10.38
2023-01-30T07:56:18.358Z,10.62
2023-01-30T07:58:46.030Z,10.64
2023-01-30T08:01:14.003Z,10.66
2023-01-30T08:03:43.667Z,10.67
2023-01-30T08:06:12.437Z,10.73
2023-01-30T08:08:40.124Z,10.76
2023-01-30T08:11:09.179Z,10.66
2023-01-30T08:13:36.963Z,10.79
2023-01-30T08:16:06.013Z,10.76
2023-01-30T08:18:34.015Z,10.82
2023-01-30T08:21:01.875Z,10.51
2023-01-30T08:23:29.720Z,10.74
2023-01-30T08:25:57.422Z,10.87
2023-01-30T08:28:26.968Z,10.92
2023-01-30T08:30:55.392Z,11.01
2023-01-30T08:33:23.301Z,10.94
2023-01-30T08:35:56.979Z,11.08
2023-01-30T08:38:24.654Z,11.13
2023-01-30T08:40:52.386Z,11.17
2023-01-30T08:43:20.145Z,11.24
2023-01-30T08:45:49.326Z,11.23
2023-01-30T08:48:17.041Z,11.25
2023-01-30T08:50:44.782Z,11.30
2023-01-30T08:53:12.476Z,11.29
2023-01-30T08:55:40.244Z,11.32
2023-01-30T08:58:07.942Z,11.33
2023-01-30T09:00:35.771Z,11.36
2023-01-30T09:03:07.351Z,11.49
2023-01-30T09:05:35.097Z,11.57
2023-01-30T09:08:03.625Z,11.56
2023-01-30T09:10:31.371Z,11.55
2023-01-30T09:12:59.062Z,11.52
2023-01-30T09:15:27.947Z,11.54
2023-01-30T09:17:55.610Z,11.57
2023-01-30T09:20:25.668Z,11.55
2023-01-30T09:22:53.767Z,11.51
2023-01-30T09:25:21.463Z,11.57
2023-01-30T09:27:50.304Z,11.52
2023-01-30T09:30:20.203Z,11.55
2023-01-30T09:32:49.207Z,11.56
2023-01-30T09:35:17.063Z,11.52
2023-01-30T09:37:49.621Z,11.43
2023-01-30T09:40:17.985Z,11.49
2023-01-30T09:43:07.049Z,11.44
2023-01-30T09:45:42.569Z,11.42
2023-01-30T09:48:18.257Z,11.17
2023-01-30T09:50:58.249Z,11.34
2023-01-30T09:53:32.631Z,11.29
2023-01-30T09:56:01.649Z,11.43
2023-01-30T09:58:33.904Z,11.41
2023-01-30T10:01:04.723Z,11.37
2023-01-30T10:03:36.538Z,11.39
2023-01-30T10:06:07.122Z,11.22
2023-01-30T10:08:50.181Z,11.31
2023-01-30T10:11:34.892Z,11.31
2023-01-30T10:14:26.736Z,11.35
2023-01-30T10:16:58.814Z,11.38
2023-01-30T10:19:51.210Z,11.42
2023-01-30T10:22:26.186Z,11.22
2023-01-30T10:25:00.293Z,11.33
2023-01-30T10:27:28.802Z,11.30
2023-01-30T10:29:57.643Z,11.16
2023-01-30T10:32:28.887Z,11.30
2023-01-30T10:34:58.624Z,11.30
2023-01-30T10:37:29.177Z,11.07
2023-01-30T10:40:01.634Z,11.05
2023-01-30T10:42:30.655Z,11.25
2023-01-30T10:45:01.849Z,11.26
2023-01-30T10:47:46.773Z,11.22
2023-01-30T10:50:18.207Z,11.27
2023-01-30T10:52:50.877Z,11.20
2023-01-30T10:55:36.278Z,11.14
2023-01-30T10:58:09.604Z,11.19
2023-01-30T11:00:39.467Z,11.14
2023-01-30T11:03:21.495Z,11.25
2023-01-30T11:05:51.091Z,11.30
2023-01-30T11:08:21.757Z,11.32
2023-01-30T11:10:50.984Z,11.37
2023-01-30T11:13:20.929Z,11.43
2023-01-30T11:15:50.971Z,11.31
2023-01-30T11:19:11.319Z,11.24
2023-01-30T11:21:09.621Z,11.42
2023-01-30T11:23:41.623Z,11.44
2023-01-30T11:26:18.251Z,11.43
2023-01-30T11:28:48.493Z,11.42
2023-01-30T11:31:28.200Z,11.30
2023-01-30T11:34:05.135Z,11.52
2023-01-30T11:36:33.722Z,11.54
2023-01-30T11:39:02.946Z,11.41
2023-01-30T11:41:32.277Z,11.61
2023-01-30T11:44:04.055Z,11.29
2023-01-30T11:46:33.493Z,11.23
2023-01-30T11:49:44.076Z,11.62
2023-01-30T11:51:50.186Z,11.67
2023-01-30T11:54:19.818Z,11.35
2023-01-30T11:56:50.780Z,11.63
2023-01-30T11:59:26.594Z,11.80
2023-01-30T12:01:54.386Z,11.80
2023-01-30T12:04:24.145Z,11.81
2023-01-30T12:06:51.857Z,11.70
2023-01-30T12:09:39.962Z,11.84
2023-01-30T12:12:34.350Z,11.83
2023-01-30T12:15:21.286Z,11.84
2023-01-30T12:17:52.259Z,11.69
2023-01-30T12:20:24.628Z,11.77
2023-01-30T12:22:57.118Z,11.69
2023-01-30T12:25:26.705Z,11.82
2023-01-30T12:30:30.616Z,11.80
2023-01-30T12:35:38.231Z,11.83
2023-01-30T12:38:09.202Z,11.78
2023-01-30T12:40:45.984Z,11.72
2023-01-30T12:43:29.544Z,11.95
2023-01-30T12:46:04.823Z,11.93
2023-01-30T12:48:48.260Z,11.60
2023-01-30T12:51:23.284Z,12.06
2023-01-30T12:53:57.037Z,12.08
2023-01-30T12:56:33.458Z,12.03
2023-01-30T12:59:04.721Z,12.33
2023-01-30T13:01:35.333Z,12.15
2023-01-30T13:04:06.250Z,12.30
2023-01-30T13:06:46.799Z,12.24
2023-01-30T13:09:21.377Z,12.28
2023-01-30T13:11:54.492Z,12.24
2023-01-30T13:14:27.841Z,12.36
2023-01-30T13:17:03.982Z,12.40
2023-01-30T13:19:40.796Z,12.48
2023-01-30T13:22:11.182Z,12.43
2023-01-30T13:24:44.714Z,12.46
2023-01-30T13:27:16.420Z,12.43
2023-01-30T13:29:47.174Z,12.41
2023-01-30T13:32:17.095Z,11.76
2023-01-30T13:34:46.183Z,12.45
2023-01-30T13:37:14.868Z,12.47
2023-01-30T13:39:45.037Z,12.41
2023-01-30T13:42:19.512Z,12.44
2023-01-30T13:44:49.532Z,12.52
2023-01-30T13:47:24.613Z,12.42
2023-01-30T13:49:57.240Z,12.53
2023-01-30T13:52:28.294Z,12.49
2023-01-30T13:54:59.548Z,12.56
2023-01-30T13:57:33.438Z,12.58
2023-01-30T14:00:30.382Z,12.62
2023-01-30T14:03:31.861Z,12.59
2023-01-30T14:06:13.171Z,12.39
2023-01-30T14:08:49.199Z,12.52
2023-01-30T14:11:45.893Z,12.54
2023-01-30T14:14:32.831Z,12.60
2023-01-30T14:17:14.276Z,12.65
2023-01-30T14:19:43.836Z,12.60
2023-01-30T14:22:23.745Z,12.53
2023-01-30T14:25:24.570Z,12.52
2023-01-30T14:27:52.975Z,12.14
2023-01-30T14:30:37.797Z,12.67
2023-01-30T14:33:31.803Z,12.69
2023-01-30T14:36:33.401Z,12.75
2023-01-30T14:39:34.310Z,12.73
2023-01-30T14:42:21.487Z,12.68
2023-01-30T14:44:59.688Z,12.66
2023-01-30T14:47:34.382Z,12.47
2023-01-30T14:50:19.101Z,12.62
2023-01-30T14:52:49.538Z,12.51
2023-01-30T14:55:20.178Z,12.13
2023-01-30T14:57:54.574Z,12.52
2023-01-30T15:00:25.932Z,12.22
2023-01-30T15:02:54.965Z,12.44
2023-01-30T15:05:29.328Z,12.41
2023-01-30T15:07:58.273Z,12.32
2023-01-30T15:10:36.089Z,12.20
2023-01-30T15:13:20.129Z,12.15
2023-01-30T15:15:56.404Z,12.24
2023-01-30T15:18:42.171Z,12.22
2023-01-30T15:21:44.265Z,12.17
2023-01-30T15:24:30.818Z,8.30
2023-01-30T15:27:01.341Z,11.02
2023-01-30T15:30:33.431Z,11.75
2023-01-30T15:33:31.909Z,12.03
2023-01-30T15:36:55.470Z,8.60
2023-01-30T15:40:41.560Z,10.06
2023-01-30T15:43:24.085Z,10.42
2023-01-30T15:46:02.370Z,9.99
2023-01-30T15:49:07.395Z,11.92
2023-01-30T15:51:37.924Z,11.92
2023-01-30T15:54:10.519Z,11.88
2023-01-30T15:56:38.561Z,10.49
2023-01-30T15:59:06.598Z,9.85
2023-01-30T16:01:34.654Z,10.54
2023-01-30T16:04:07.893Z,11.79
2023-01-30T16:06:37.963Z,11.78
2023-01-30T16:09:17.448Z,10.57
2023-01-30T16:11:45.743Z,10.07
2023-01-30T16:14:15.036Z,10.18
2023-01-30T16:16:50.561Z,11.74
2023-01-30T16:19:38.014Z,11.75
2023-01-30T16:22:07.305Z,11.42
2023-01-30T16:24:38.003Z,10.56
2023-01-30T16:27:08.482Z,11.68
2023-01-30T16:29:48.526Z,9.99
2023-01-30T16:32:18.467Z,9.47
2023-01-30T16:34:47.731Z,11.71
2023-01-30T16:37:26.358Z,10.24
2023-01-30T16:40:10.180Z,11.44
2023-01-30T16:42:38.360Z,11.61
2023-01-30T16:45:40.394Z,11.68
2023-01-30T16:48:24.477Z,10.37
2023-01-30T16:51:11.712Z,11.42
2023-01-30T16:53:40.097Z,11.61
2023-01-30T16:56:11.394Z,10.51
2023-01-30T16:58:41.379Z,10.47
2023-01-30T17:01:10.008Z,10.14
2023-01-30T17:03:39.338Z,11.01
2023-01-30T17:06:12.741Z,10.78
2023-01-30T17:08:49.159Z,11.08
2023-01-30T17:11:33.617Z,10.34
2023-01-30T17:14:18.797Z,10.75
2023-01-30T17:16:47.265Z,9.73
2023-01-30T17:19:15.489Z,9.25
2023-01-30T17:21:45.656Z,10.88
2023-01-30T17:24:15.439Z,10.17
2023-01-30T17:26:45.339Z,8.96
2023-01-30T17:29:23.435Z,11.27
2023-01-30T17:31:52.731Z,9.76
2023-01-30T17:34:47.746Z,11.27
2023-01-30T17:37:20.231Z,10.30
2023-01-30T17:39:48.435Z,10.56
2023-01-30T17:42:34.332Z,9.24
2023-01-30T17:45:02.862Z,11.14
2023-01-30T17:51:46.582Z,9.90
2023-01-30T17:57:25.186Z,11.32
2023-01-30T18:05:41.047Z,11.26
2023-01-30T18:08:08.724Z,11.25
2023-01-30T18:10:36.380Z,11.24
2023-01-30T18:13:04.116Z,11.26
2023-01-30T18:15:33.179Z,11.23
2023-01-30T18:18:00.867Z,11.24
2023-01-30T18:20:28.706Z,11.16
2023-01-30T18:22:56.396Z,11.17
2023-01-30T18:25:24.056Z,11.19
2023-01-30T18:27:51.855Z,11.19
2023-01-30T18:30:20.393Z,11.16
2023-01-30T18:32:53.380Z,11.06
2023-01-30T18:35:22.069Z,11.17
2023-01-30T18:37:50.532Z,11.21
2023-01-30T18:40:19.479Z,11.20
2023-01-30T18:42:47.340Z,11.21
2023-01-30T18:45:15.091Z,11.22
2023-01-30T18:47:42.827Z,11.21
2023-01-30T18:50:12.354Z,11.20
2023-01-30T18:52:40.053Z,11.22
2023-01-30T18:55:08.471Z,11.17
2023-01-30T18:57:36.155Z,11.21
2023-01-30T19:00:04.490Z,11.15
2023-01-30T19:02:32.282Z,11.14
2023-01-30T19:05:02.248Z,11.13
2023-01-30T19:07:31.267Z,11.14
2023-01-30T19:09:59.469Z,11.14
2023-01-30T19:12:44.769Z,11.10
2023-01-30T19:15:12.446Z,11.04
2023-01-30T19:17:40.190Z,10.97
2023-01-30T19:20:11.047Z,10.96
2023-01-30T19:22:40.372Z,10.96
2023-01-30T19:25:09.058Z,10.96
2023-01-30T19:27:38.309Z,10.86
2023-01-30T19:30:07.247Z,10.83
2023-01-30T19:32:35.304Z,10.79
2023-01-30T19:35:03.034Z,10.76
2023-01-30T19:37:30.817Z,10.73
2023-01-30T19:39:59.897Z,10.60
2023-01-30T19:42:27.727Z,10.54
2023-01-30T19:44:55.451Z,10.40
2023-01-30T19:47:23.330Z,10.27
2023-01-30T19:49:51.124Z,10.27
2023-01-30T19:52:18.809Z,10.21
2023-01-30T19:54:47.633Z,10.13
2023-01-30T19:57:16.780Z,10.01
2023-01-30T19:59:45.235Z,9.94
2023-01-30T20:02:13.482Z,9.93
2023-01-30T20:04:41.329Z,9.89
2023-01-30T20:07:09.171Z,9.84
2023-01-30T20:09:36.995Z,9.83
2023-01-30T20:12:04.936Z,9.83
2023-01-30T20:14:34.202Z,9.83
2023-01-30T20:17:01.874Z,9.84
2023-01-30T20:19:29.547Z,9.86
2023-01-30T20:21:57.345Z,9.91
2023-01-30T20:24:25.013Z,9.97
2023-01-30T20:26:52.790Z,10.02
2023-01-30T20:29:20.503Z,10.08
2023-01-30T20:31:49.724Z,10.13
2023-01-30T20:34:18.080Z,10.18
2023-01-30T20:36:45.807Z,10.19
2023-01-30T20:39:14.097Z,10.21
2023-01-30T20:41:41.886Z,10.25
2023-01-30T20:44:11.472Z,10.24
2023-01-30T20:46:41.433Z,10.25
2023-01-30T20:49:13.008Z,10.27
2023-01-30T20:51:41.823Z,10.28
2023-01-30T20:54:10.411Z,10.22
2023-01-30T20:56:42.929Z,10.21
2023-01-30T20:59:11.067Z,10.10
2023-01-30T21:01:39.419Z,10.21
2023-01-30T21:04:07.929Z,10.23
2023-01-30T21:06:41.994Z,10.19
2023-01-30T21:09:14.023Z,10.19
2023-01-30T21:11:41.783Z,10.14
2023-01-30T21:14:09.450Z,10.13
2023-01-30T21:16:37.381Z,10.08
2023-01-30T21:19:06.461Z,9.96
2023-01-30T21:21:35.411Z,9.86
2023-01-30T21:24:05.872Z,9.78
2023-01-30T21:26:34.712Z,9.80
2023-01-30T21:29:02.455Z,9.78
2023-01-30T21:31:31.338Z,9.76
2023-01-30T21:33:59.756Z,9.78
2023-01-30T21:36:27.807Z,9.76
2023-01-30T21:39:13.200Z,9.73
2023-01-30T21:41:59.820Z,9.58
2023-01-30T21:44:28.843Z,9.52
2023-01-30T21:46:56.908Z,9.44
2023-01-30T21:49:26.506Z,9.38
2023-01-30T21:51:54.337Z,9.31
2023-01-30T21:54:22.236Z,9.26
2023-01-30T21:56:51.411Z,9.24
2023-01-30T21:59:19.156Z,9.23
2023-01-30T22:01:46.931Z,9.25
2023-01-30T22:04:15.664Z,9.27
2023-01-30T22:06:43.629Z,9.35
2023-01-30T22:09:13.701Z,9.36
2023-01-30T22:11:41.375Z,9.44
2023-01-30T22:14:13.119Z,9.46
2023-01-30T22:16:40.788Z,9.48
2023-01-30T22:19:08.584Z,9.56
2023-01-30T22:21:37.446Z,9.60
2023-01-30T22:24:07.391Z,9.54
2023-01-30T22:26:35.216Z,9.63
2023-01-30T22:29:03.763Z,9.62
2023-01-30T22:31:34.588Z,9.66
2023-01-30T22:34:02.539Z,9.70
2023-01-30T22:36:31.590Z,9.70
2023-01-30T22:38:59.273Z,9.75
2023-01-30T22:41:27.858Z,9.76
2023-01-30T22:43:56.173Z,9.78
2023-01-30T22:46:24.750Z,9.61
2023-01-30T22:48:54.097Z,9.83
2023-01-30T22:51:23.079Z,9.85
2023-01-30T22:53:51.421Z,9.87
2023-01-30T22:56:21.041Z,9.90
2023-01-30T22:58:48.769Z,9.90
2023-01-30T23:01:18.148Z,9.91
2023-01-30T23:03:46.570Z,9.84
2023-01-30T23:06:16.561Z,9.91
2023-01-30T23:08:45.266Z,9.90
2023-01-30T23:11:14.260Z,9.86
2023-01-30T23:13:42.128Z,9.85
2023-01-30T23:16:09.860Z,9.89
2023-01-30T23:18:55.463Z,9.56
2023-01-30T23:21:24.813Z,9.90
2023-01-30T23:23:53.050Z,9.91
2023-01-30T23:26:21.036Z,9.89
2023-01-30T23:28:48.986Z,9.89
2023-01-30T23:31:17.803Z,9.87
2023-01-30T23:33:45.611Z,9.87
2023-01-30T23:36:14.412Z,9.87
2023-01-30T23:38:43.720Z,9.86
2023-01-30T23:41:12.872Z,9.88
2023-01-30T23:43:40.990Z,9.85
2023-01-30T23:46:13.177Z,9.88
2023-01-30T23:48:41.014Z,9.91
2023-01-30T23:51:09.567Z,9.93
2023-01-30T23:53:37.933Z,9.94
2023-01-30T23:56:08.277Z,9.96
2023-01-30T23:58:36.502Z,9.95
